createdAt,value
2019-04-21T00:00:21.031Z,11.19
2019-04-21T00:01:20.200Z,10.99
2019-04-21T00:02:28.069Z,11.07
2019-04-21T00:03:26.045Z,10.90
2019-04-21T00:04:34.576Z,10.97
2019-04-21T00:05:38.141Z,11.00
2019-04-21T00:06:43.071Z,10.96
2019-04-21T00:07:36.697Z,10.92
2019-04-21T00:08:42.851Z,10.97
2019-04-21T00:09:48.064Z,10.99
2019-04-21T00:10:40.351Z,10.97
2019-04-21T00:11:41.481Z,11.02
2019-04-21T00:12:35.852Z,10.90
2019-04-21T00:13:32.642Z,10.90
2019-04-21T00:14:31.601Z,10.93
2019-04-21T00:15:29.786Z,11.02
2019-04-21T00:16:33.306Z,10.94
2019-04-21T00:17:23.131Z,10.86
2019-04-21T00:18:19.146Z,10.89
2019-04-21T00:19:23.047Z,10.87
2019-04-21T00:20:28.976Z,10.79
2019-04-21T00:21:29.148Z,10.75
2019-04-21T00:22:34.334Z,10.82
2019-04-21T00:23:37.766Z,10.89
2019-04-21T00:24:35.016Z,10.87
2019-04-21T00:25:34.892Z,10.90
2019-04-21T00:26:42.525Z,10.90
2019-04-21T00:27:34.019Z,10.82
2019-04-21T00:29:51.867Z,10.71
2019-04-21T00:30:50.786Z,10.67
2019-04-21T00:31:48.498Z,10.53
2019-04-21T00:32:46.023Z,10.40
2019-04-21T00:33:37.352Z,10.37
2019-04-21T00:34:34.300Z,10.40
2019-04-21T00:35:41.464Z,10.38
2019-04-21T00:36:47.609Z,10.38
2019-04-21T00:37:54.638Z,10.38
2019-04-21T00:39:07.055Z,10.42
2019-04-21T00:40:01.558Z,10.54
2019-04-21T00:40:56.489Z,10.42
2019-04-21T00:41:55.843Z,10.38
2019-04-21T00:42:50.374Z,10.38
2019-04-21T00:43:50.919Z,10.42
2019-04-21T00:44:44.293Z,10.38
2019-04-21T00:45:44.858Z,10.42
2019-04-21T00:46:50.202Z,10.37
2019-04-21T00:47:51.043Z,10.31
2019-04-21T00:48:54.033Z,10.30
2019-04-21T00:49:56.606Z,10.23
2019-04-21T00:51:15.029Z,10.17
2019-04-21T00:52:03.619Z,10.15
2019-04-21T00:53:00.443Z,10.19
2019-04-21T00:55:10.103Z,10.13
2019-04-21T00:56:01.485Z,10.15
2019-04-21T00:56:56.916Z,10.13
2019-04-21T00:57:58.633Z,10.12
2019-04-21T00:58:59.955Z,10.09
2019-04-21T00:59:57.062Z,10.13
2019-04-21T01:00:58.550Z,10.12
2019-04-21T01:01:55.508Z,10.07
2019-04-21T01:02:57.716Z,9.97
2019-04-21T01:03:58.466Z,9.99
2019-04-21T01:05:01.705Z,10.01
2019-04-21T01:06:11.771Z,9.94
2019-04-21T01:06:55.996Z,9.92
2019-04-21T01:07:50.627Z,10.02
2019-04-21T01:08:55.034Z,10.07
2019-04-21T01:09:48.504Z,10.07
2019-04-21T01:10:48.921Z,10.16
2019-04-21T01:11:57.576Z,10.04
2019-04-21T01:12:56.018Z,10.09
2019-04-21T01:13:58.009Z,10.01
2019-04-21T01:14:55.329Z,9.98
2019-04-21T01:15:52.825Z,9.84
2019-04-21T01:16:57.632Z,9.91
2019-04-21T01:17:51.863Z,9.80
2019-04-21T01:18:54.827Z,9.86
2019-04-21T01:19:51.362Z,9.79
2019-04-21T01:20:33.003Z,9.77
2019-04-21T01:21:32.050Z,9.77
2019-04-21T01:22:31.981Z,9.68
2019-04-21T01:23:31.970Z,9.62
2019-04-21T01:24:36.202Z,9.66
2019-04-21T01:25:39.110Z,9.65
2019-04-21T01:26:43.700Z,9.68
2019-04-21T01:27:54.108Z,9.61
2019-04-21T01:28:52.481Z,9.58
2019-04-21T01:29:58.298Z,9.62
2019-04-21T01:30:53.536Z,9.56
2019-04-21T01:31:48.053Z,9.55
2019-04-21T01:32:55.007Z,9.58
2019-04-21T01:33:56.300Z,9.58
2019-04-21T01:34:56.102Z,9.51
2019-04-21T01:35:55.037Z,9.47
2019-04-21T01:36:51.362Z,9.46
2019-04-21T01:38:00.183Z,9.46
2019-04-21T01:38:55.056Z,9.41
2019-04-21T01:39:54.136Z,9.50
2019-04-21T01:40:53.135Z,9.48
2019-04-21T01:41:57.411Z,9.46
2019-04-21T01:42:52.955Z,9.47
2019-04-21T01:43:49.894Z,9.46
2019-04-21T01:44:53.552Z,9.51
2019-04-21T01:45:48.656Z,9.51
2019-04-21T01:46:49.024Z,9.48
2019-04-21T01:47:50.952Z,9.44
2019-04-21T01:48:49.523Z,9.37
2019-04-21T01:49:43.205Z,9.43
2019-04-21T01:50:51.619Z,9.44
2019-04-21T01:52:03.191Z,9.39
2019-04-21T01:52:55.935Z,9.36
2019-04-21T01:53:56.753Z,9.32
2019-04-21T01:54:55.953Z,9.31
2019-04-21T01:55:54.391Z,9.40
2019-04-21T01:56:53.898Z,9.28
2019-04-21T01:57:49.584Z,9.23
2019-04-21T01:58:44.295Z,9.31
2019-04-21T01:59:47.537Z,9.14
2019-04-21T02:00:50.156Z,9.23
2019-04-21T02:01:54.124Z,9.18
2019-04-21T02:02:59.575Z,9.13
2019-04-21T02:04:56.570Z,9.06
2019-04-21T02:06:01.648Z,9.02
2019-04-21T02:07:50.565Z,8.85
2019-04-21T02:08:51.508Z,8.82
2019-04-21T02:09:59.357Z,8.81
2019-04-21T02:10:57.536Z,8.76
2019-04-21T02:11:55.124Z,8.76
2019-04-21T02:12:52.277Z,8.73
2019-04-21T02:14:00.492Z,8.67
2019-04-21T02:14:58.197Z,8.63
2019-04-21T02:15:56.105Z,8.66
2019-04-21T02:16:54.197Z,8.66
2019-04-21T02:17:54.032Z,8.66
2019-04-21T02:18:49.374Z,8.70
2019-04-21T02:19:50.334Z,8.70
2019-04-21T02:20:43.428Z,8.74
2019-04-21T02:21:47.461Z,8.74
2019-04-21T02:23:20.395Z,8.69
2019-04-21T02:23:59.037Z,8.67
2019-04-21T02:24:56.632Z,8.74
2019-04-21T02:25:57.360Z,8.63
2019-04-21T02:26:54.125Z,8.63
2019-04-21T02:27:59.484Z,8.66
2019-04-21T02:28:55.823Z,8.69
2019-04-21T02:29:55.929Z,8.63
2019-04-21T02:32:18.364Z,8.63
2019-04-21T02:33:16.841Z,8.74
2019-04-21T02:34:09.262Z,8.78
2019-04-21T02:36:15.608Z,8.82
2019-04-21T02:37:25.299Z,8.85
2019-04-21T02:38:09.192Z,8.81
2019-04-21T02:40:03.946Z,8.91
2019-04-21T02:40:57.916Z,8.78
2019-04-21T02:42:02.073Z,8.78
2019-04-21T02:43:07.104Z,8.81
2019-04-21T02:44:08.308Z,8.74
2019-04-21T02:45:00.682Z,8.71
2019-04-21T02:46:10.345Z,8.67
2019-04-21T02:47:09.221Z,8.64
2019-04-21T02:48:04.559Z,8.60
2019-04-21T02:49:04.015Z,8.60
2019-04-21T02:50:09.631Z,8.60
2019-04-21T02:51:00.890Z,8.63
2019-04-21T02:52:16.606Z,8.55
2019-04-21T02:53:01.276Z,8.58
2019-04-21T02:54:32.306Z,8.45
2019-04-21T02:55:02.285Z,8.46
2019-04-21T02:56:03.886Z,8.44
2019-04-21T02:59:12.414Z,8.46
2019-04-21T03:00:06.504Z,8.38
2019-04-21T03:01:03.337Z,8.26
2019-04-21T03:02:04.226Z,8.26
2019-04-21T03:04:03.815Z,8.30
2019-04-21T03:05:01.809Z,8.23
2019-04-21T03:06:18.736Z,8.20
2019-04-21T03:07:09.682Z,8.26
2019-04-21T03:08:03.460Z,8.20
2019-04-21T03:09:09.464Z,8.13
2019-04-21T03:10:09.461Z,8.06
2019-04-21T03:11:09.287Z,8.08
2019-04-21T03:13:05.670Z,7.93
2019-04-21T03:14:05.956Z,7.98
2019-04-21T03:15:06.197Z,8.05
2019-04-21T03:16:11.915Z,8.06
2019-04-21T03:17:09.922Z,8.05
2019-04-21T03:18:04.935Z,7.95
2019-04-21T03:20:02.884Z,7.94
2019-04-21T03:21:16.876Z,7.88
2019-04-21T03:22:10.208Z,7.91
2019-04-21T03:23:16.627Z,7.95
2019-04-21T03:23:57.391Z,7.95
2019-04-21T03:26:12.062Z,7.94
2019-04-21T03:29:03.334Z,8.03
2019-04-21T03:36:33.374Z,7.88
2019-04-21T03:37:11.416Z,7.80
2019-04-21T03:38:03.052Z,7.79
2019-04-21T03:39:04.663Z,7.67
2019-04-21T03:40:01.416Z,7.66
2019-04-21T03:41:04.513Z,7.66
2019-04-21T03:42:07.431Z,7.70
2019-04-21T03:43:08.336Z,7.72
2019-04-21T03:44:10.016Z,7.63
2019-04-21T03:45:03.662Z,7.54
2019-04-21T03:46:01.251Z,7.75
2019-04-21T03:47:10.336Z,7.67
2019-04-21T03:48:01.487Z,7.69
2019-04-21T03:51:04.370Z,7.57
2019-04-21T03:52:03.643Z,7.53
2019-04-21T03:53:59.987Z,7.70
2019-04-21T03:55:50.955Z,7.54
2019-04-21T03:57:21.662Z,7.47
2019-04-21T04:00:09.005Z,7.45
2019-04-21T04:03:35.408Z,7.50
2019-04-21T04:05:05.674Z,7.53
2019-04-21T04:06:15.495Z,7.61
2019-04-21T04:07:25.105Z,7.58
2019-04-21T04:08:47.555Z,7.56
2019-04-21T04:09:11.077Z,7.60
2019-04-21T04:10:08.395Z,7.58
2019-04-21T04:11:58.332Z,7.58
2019-04-21T04:13:06.800Z,7.58
2019-04-21T04:14:12.957Z,7.50
2019-04-21T04:15:24.408Z,7.51
2019-04-21T04:17:11.669Z,7.47
2019-04-21T04:18:04.664Z,7.42
2019-04-21T04:21:54.476Z,7.33
2019-04-21T04:22:43.318Z,7.45
2019-04-21T04:26:36.968Z,7.48
2019-04-21T04:27:49.587Z,7.47
2019-04-21T04:28:39.851Z,7.48
2019-04-21T04:29:24.229Z,7.45
2019-04-21T04:30:31.149Z,7.48
2019-04-21T04:31:39.652Z,7.47
2019-04-21T04:32:30.683Z,7.53
2019-04-21T04:33:41.769Z,7.53
2019-04-21T04:34:29.284Z,7.45
2019-04-21T04:35:40.617Z,7.39
2019-04-21T04:37:31.749Z,7.38
2019-04-21T04:38:39.558Z,7.28
2019-04-21T04:40:51.779Z,7.24
2019-04-21T04:41:35.074Z,7.24
2019-04-21T04:43:45.577Z,7.23
2019-04-21T04:44:54.268Z,7.18
2019-04-21T04:46:34.779Z,7.29
2019-04-21T04:47:24.392Z,7.31
2019-04-21T04:48:29.055Z,7.31
2019-04-21T04:49:43.539Z,7.32
2019-04-21T04:51:56.414Z,7.35
2019-04-21T04:52:32.744Z,7.35
2019-04-21T04:53:43.963Z,7.45
2019-04-21T04:54:39.079Z,7.47
2019-04-21T04:55:34.004Z,7.38
2019-04-21T04:56:30.711Z,7.33
2019-04-21T04:57:39.573Z,7.32
2019-04-21T04:58:54.588Z,7.24
2019-04-21T05:00:34.847Z,7.36
2019-04-21T05:01:34.577Z,7.36
2019-04-21T05:03:44.330Z,7.48
2019-04-21T05:04:40.143Z,7.50
2019-04-21T05:05:30.043Z,7.54
2019-04-21T05:07:33.459Z,7.58
2019-04-21T05:08:47.129Z,7.61
2019-04-21T05:10:43.101Z,7.69
2019-04-21T05:11:43.200Z,7.61
2019-04-21T05:13:37.569Z,7.63
2019-04-21T05:15:42.610Z,7.56
2019-04-21T05:18:36.756Z,7.57
2019-04-21T05:20:48.812Z,7.66
2019-04-21T05:22:29.034Z,7.69
2019-04-21T05:23:21.286Z,7.67
2019-04-21T05:24:16.588Z,7.69
2019-04-21T05:25:13.166Z,7.61
2019-04-21T05:26:13.289Z,7.61
2019-04-21T05:27:14.122Z,7.66
2019-04-21T05:28:12.671Z,7.79
2019-04-21T05:29:07.159Z,7.77
2019-04-21T05:30:29.355Z,7.73
2019-04-21T05:31:25.401Z,7.75
2019-04-21T05:32:17.277Z,7.87
2019-04-21T05:33:20.800Z,7.82
2019-04-21T05:34:25.704Z,7.93
2019-04-21T05:35:23.209Z,7.83
2019-04-21T05:36:20.485Z,7.83
2019-04-21T05:37:21.763Z,7.82
2019-04-21T05:38:17.738Z,7.83
2019-04-21T05:39:14.737Z,7.83
2019-04-21T05:40:15.840Z,7.95
2019-04-21T05:41:12.377Z,7.90
2019-04-21T05:42:07.825Z,7.91
2019-04-21T05:43:26.328Z,7.94
2019-04-21T05:44:28.018Z,8.08
2019-04-21T05:45:34.842Z,8.00
2019-04-21T05:46:18.406Z,8.15
2019-04-21T05:47:26.302Z,8.15
2019-04-21T05:48:28.861Z,8.12
2019-04-21T05:49:14.071Z,8.23
2019-04-21T05:50:16.601Z,8.36
2019-04-21T05:52:27.549Z,8.49
2019-04-21T05:53:36.175Z,8.58
2019-04-21T05:54:39.380Z,8.63
2019-04-21T05:55:40.556Z,8.53
2019-04-21T05:56:35.369Z,8.79
2019-04-21T05:58:48.055Z,8.81
2019-04-21T05:59:49.110Z,8.89
2019-04-21T06:01:47.024Z,8.85
2019-04-21T06:02:56.321Z,9.00
2019-04-21T06:03:52.410Z,9.02
2019-04-21T06:05:14.098Z,9.11
2019-04-21T06:06:00.482Z,9.03
2019-04-21T06:06:48.108Z,9.19
2019-04-21T06:07:47.226Z,9.21
2019-04-21T06:08:50.640Z,9.26
2019-04-21T06:09:57.305Z,9.46
2019-04-21T06:10:54.212Z,9.48
2019-04-21T06:11:59.892Z,9.50
2019-04-21T06:12:55.400Z,9.58
2019-04-21T06:13:55.518Z,9.69
2019-04-21T06:14:52.138Z,9.79
2019-04-21T06:15:46.346Z,9.92
2019-04-21T06:16:54.581Z,10.12
2019-04-21T06:17:49.551Z,10.23
2019-04-21T06:18:52.965Z,10.38
2019-04-21T06:19:49.688Z,10.42
2019-04-21T06:20:51.799Z,10.53
2019-04-21T06:21:44.779Z,10.67
2019-04-21T06:22:54.816Z,10.86
2019-04-21T06:23:47.817Z,11.11
2019-04-21T06:25:11.530Z,11.29
2019-04-21T06:26:59.207Z,11.95
2019-04-21T06:27:44.409Z,12.20
2019-04-21T06:29:50.310Z,12.31
2019-04-21T06:30:59.388Z,12.21
2019-04-21T06:32:16.304Z,11.87
2019-04-21T06:32:50.564Z,11.77
2019-04-21T06:35:08.374Z,11.70
2019-04-21T06:36:09.688Z,11.57
2019-04-21T06:36:51.928Z,11.55
2019-04-21T06:37:55.021Z,11.73
2019-04-21T06:40:03.212Z,11.87
2019-04-21T06:40:48.704Z,11.83
2019-04-21T06:41:49.251Z,11.83
2019-04-21T06:42:51.687Z,11.90
2019-04-21T06:43:59.820Z,11.86
2019-04-21T06:44:53.771Z,11.86
2019-04-21T06:45:57.295Z,12.00
2019-04-21T06:46:49.036Z,12.10
2019-04-21T06:47:51.312Z,12.35
2019-04-21T06:48:51.213Z,12.67
2019-04-21T06:50:52.510Z,13.15
2019-04-21T06:51:43.550Z,13.30
2019-04-21T06:52:53.886Z,13.27
2019-04-21T06:53:52.703Z,13.15
2019-04-21T06:54:50.768Z,13.00
2019-04-21T06:55:44.827Z,13.13
2019-04-21T06:56:45.013Z,13.28
2019-04-21T06:57:46.257Z,13.11
2019-04-21T06:58:48.173Z,13.04
2019-04-21T06:59:43.379Z,12.98
2019-04-21T07:00:41.353Z,13.01
2019-04-21T07:02:52.142Z,13.16
2019-04-21T07:03:49.357Z,13.19
2019-04-21T07:04:50.143Z,13.20
2019-04-21T07:05:48.747Z,13.37
2019-04-21T07:06:48.050Z,13.38
2019-04-21T07:07:56.390Z,13.31
2019-04-21T07:08:55.089Z,13.25
2019-04-21T07:09:51.019Z,13.23
2019-04-21T07:10:46.466Z,13.23
2019-04-21T07:11:44.545Z,13.31
2019-04-21T07:12:45.058Z,13.47
2019-04-21T07:13:49.066Z,13.47
2019-04-21T07:14:47.890Z,13.57
2019-04-21T07:15:55.860Z,13.52
2019-04-21T07:16:51.006Z,13.56
2019-04-21T07:17:45.644Z,13.77
2019-04-21T07:18:58.618Z,13.63
2019-04-21T07:19:51.066Z,13.68
2019-04-21T07:20:50.456Z,13.72
2019-04-21T07:21:45.489Z,13.85
2019-04-21T07:22:47.872Z,13.81
2019-04-21T07:23:57.215Z,13.78
2019-04-21T07:24:51.809Z,13.81
2019-04-21T07:25:47.589Z,13.83
2019-04-21T07:26:51.057Z,13.89
2019-04-21T07:27:50.750Z,13.97
2019-04-21T07:28:49.907Z,14.05
2019-04-21T07:29:50.753Z,14.15
2019-04-21T07:30:51.619Z,14.15
2019-04-21T07:31:54.384Z,14.32
2019-04-21T07:32:49.431Z,14.32
2019-04-21T07:34:45.925Z,14.48
2019-04-21T07:35:43.235Z,14.45
2019-04-21T07:36:52.144Z,14.37
2019-04-21T07:37:48.125Z,14.37
2019-04-21T07:38:46.951Z,14.47
2019-04-21T07:39:43.880Z,14.44
2019-04-21T07:40:40.047Z,14.47
2019-04-21T07:41:38.605Z,14.54
2019-04-21T07:42:42.899Z,14.48
2019-04-21T07:43:41.055Z,14.63
2019-04-21T07:44:40.864Z,14.65
2019-04-21T07:45:40.526Z,14.66
2019-04-21T07:46:38.465Z,14.66
2019-04-21T07:47:48.044Z,14.73
2019-04-21T07:48:46.084Z,14.84
2019-04-21T07:49:46.444Z,14.94
2019-04-21T07:50:49.771Z,14.99
2019-04-21T07:51:47.746Z,15.04
2019-04-21T07:52:48.686Z,15.22
2019-04-21T07:53:52.571Z,15.19
2019-04-21T07:55:03.544Z,15.36
2019-04-21T07:56:32.470Z,15.51
2019-04-21T07:57:39.725Z,15.61
2019-04-21T07:58:47.515Z,15.62
2019-04-21T07:59:55.126Z,15.76
2019-04-21T08:00:54.001Z,15.80
2019-04-21T08:01:48.364Z,15.95
2019-04-21T08:03:00.541Z,16.08
2019-04-21T08:03:46.071Z,16.12
2019-04-21T08:04:53.490Z,16.28
2019-04-21T08:05:45.796Z,16.39
2019-04-21T08:06:47.798Z,16.50
2019-04-21T08:08:43.549Z,16.56
2019-04-21T08:09:45.255Z,16.68
2019-04-21T08:10:40.493Z,16.81
2019-04-21T08:11:40.199Z,16.89
2019-04-21T08:12:44.754Z,17.04
2019-04-21T08:13:59.034Z,17.15
2019-04-21T08:14:43.853Z,17.23
2019-04-21T08:15:57.698Z,17.38
2019-04-21T08:16:46.079Z,17.54
2019-04-21T08:17:41.132Z,17.54
2019-04-21T08:18:48.676Z,17.54
2019-04-21T08:19:43.340Z,17.64
2019-04-21T08:20:44.761Z,17.70
2019-04-21T08:21:55.884Z,17.74
2019-04-21T08:22:47.943Z,17.80
2019-04-21T08:23:43.401Z,17.92
2019-04-21T08:24:45.217Z,17.97
2019-04-21T08:25:53.504Z,18.10
2019-04-21T08:26:45.170Z,18.28
2019-04-21T08:27:47.747Z,18.33
2019-04-21T08:28:45.753Z,18.38
2019-04-21T08:29:45.992Z,18.38
2019-04-21T08:30:43.096Z,18.47
2019-04-21T08:31:56.085Z,18.52
2019-04-21T08:32:51.553Z,18.74
2019-04-21T08:33:47.033Z,18.75
2019-04-21T08:34:55.557Z,18.93
2019-04-21T08:36:11.008Z,19.08
2019-04-21T08:36:40.684Z,19.27
2019-04-21T08:37:43.318Z,19.37
2019-04-21T08:38:48.406Z,19.41
2019-04-21T08:40:51.126Z,19.37
2019-04-21T08:42:45.066Z,19.37
2019-04-21T08:43:46.494Z,19.48
2019-04-21T08:44:46.625Z,19.64
2019-04-21T08:45:49.771Z,19.82
2019-04-21T08:46:46.041Z,19.82
2019-04-21T08:47:50.153Z,19.84
2019-04-21T08:48:44.892Z,19.84
2019-04-21T08:49:41.494Z,19.96
2019-04-21T08:50:47.599Z,19.85
2019-04-21T08:51:48.469Z,19.88
2019-04-21T08:52:49.275Z,20.07
2019-04-21T08:53:49.117Z,20.16
2019-04-21T08:54:43.512Z,20.10
2019-04-21T08:55:50.784Z,20.19
2019-04-21T08:56:43.188Z,20.29
2019-04-21T08:57:52.839Z,20.51
2019-04-21T08:59:45.305Z,20.59
2019-04-21T09:00:48.797Z,20.47
2019-04-21T09:01:43.046Z,20.40
2019-04-21T09:02:43.266Z,20.43
2019-04-21T09:03:42.983Z,20.59
2019-04-21T09:04:41.201Z,20.72
2019-04-21T09:06:58.593Z,20.82
2019-04-21T09:07:44.671Z,20.85
2019-04-21T09:08:46.233Z,20.95
2019-04-21T09:09:41.522Z,21.11
2019-04-21T09:10:39.382Z,21.27
2019-04-21T09:11:40.413Z,21.30
2019-04-21T09:12:42.874Z,21.21
2019-04-21T09:13:37.020Z,21.33
2019-04-21T09:14:41.472Z,21.39
2019-04-21T09:15:41.548Z,21.46
2019-04-21T09:16:36.648Z,21.66
2019-04-21T09:17:32.911Z,21.75
2019-04-21T09:18:38.065Z,21.69
2019-04-21T09:19:51.280Z,21.70
2019-04-21T09:20:46.123Z,21.70
2019-04-21T09:21:45.570Z,21.72
2019-04-21T09:22:41.294Z,21.77
2019-04-21T09:23:43.699Z,21.70
2019-04-21T09:24:41.011Z,21.69
2019-04-21T09:25:46.241Z,21.83
2019-04-21T09:26:43.507Z,21.70
2019-04-21T09:27:36.717Z,21.79
2019-04-21T09:28:35.701Z,21.85
2019-04-21T09:29:30.959Z,21.82
2019-04-21T09:30:24.077Z,21.82
2019-04-21T09:31:25.993Z,21.96
2019-04-21T09:32:27.122Z,21.99
2019-04-21T09:33:28.061Z,22.13
2019-04-21T09:34:30.587Z,22.11
2019-04-21T09:35:24.105Z,21.98
2019-04-21T09:36:25.460Z,21.95
2019-04-21T09:37:36.708Z,21.99
2019-04-21T09:38:33.855Z,21.93
2019-04-21T09:39:27.323Z,21.96
2019-04-21T09:40:30.073Z,22.06
2019-04-21T09:41:25.802Z,22.28
2019-04-21T09:42:33.271Z,22.36
2019-04-21T09:43:30.738Z,22.38
2019-04-21T09:44:29.079Z,22.35
2019-04-21T09:45:24.447Z,22.23
2019-04-21T09:46:23.221Z,22.35
2019-04-21T09:47:24.936Z,22.38
2019-04-21T09:48:25.863Z,22.43
2019-04-21T09:49:27.042Z,22.50
2019-04-21T09:50:24.197Z,22.44
2019-04-21T09:51:22.051Z,22.43
2019-04-21T09:52:29.152Z,22.51
2019-04-21T09:53:31.178Z,22.62
2019-04-21T09:54:28.469Z,22.57
2019-04-21T09:55:26.581Z,22.57
2019-04-21T09:56:31.176Z,22.60
2019-04-21T09:57:36.622Z,22.57
2019-04-21T09:58:31.048Z,22.66
2019-04-21T09:59:28.208Z,22.80
2019-04-21T10:00:27.187Z,22.80
2019-04-21T10:01:29.869Z,22.98
2019-04-21T10:02:32.776Z,23.05
2019-04-21T10:03:23.116Z,22.98
2019-04-21T10:04:23.091Z,23.03
2019-04-21T10:05:21.862Z,23.12
2019-04-21T10:06:21.849Z,23.27
2019-04-21T10:07:28.107Z,23.06
2019-04-21T10:08:22.957Z,23.10
2019-04-21T10:09:21.960Z,23.21
2019-04-21T10:10:22.972Z,23.34
2019-04-21T10:11:22.640Z,23.40
2019-04-21T10:12:21.784Z,23.47
2019-04-21T10:13:22.979Z,23.46
2019-04-21T10:14:22.035Z,23.47
2019-04-21T10:15:23.642Z,23.54
2019-04-21T10:16:21.927Z,23.63
2019-04-21T10:17:21.873Z,23.69
2019-04-21T10:18:21.794Z,23.95
2019-04-21T10:19:21.711Z,23.88
2019-04-21T10:20:22.376Z,23.76
2019-04-21T10:21:23.379Z,23.73
2019-04-21T10:22:23.119Z,23.65
2019-04-21T10:23:21.673Z,23.65
2019-04-21T10:24:22.198Z,23.44
2019-04-21T10:25:22.767Z,23.55
2019-04-21T10:26:22.217Z,23.62
2019-04-21T10:27:21.662Z,23.62
2019-04-21T10:28:21.604Z,23.86
2019-04-21T10:29:25.513Z,24.03
2019-04-21T10:30:22.616Z,24.13
2019-04-21T10:31:22.713Z,24.06
2019-04-21T10:32:23.701Z,23.87
2019-04-21T10:33:22.047Z,23.88
2019-04-21T10:34:21.554Z,23.88
2019-04-21T10:35:23.032Z,23.91
2019-04-21T10:36:22.713Z,23.92
2019-04-21T10:37:34.028Z,24.18
2019-04-21T10:38:30.389Z,24.08
2019-04-21T10:39:23.867Z,24.08
2019-04-21T10:40:21.499Z,24.13
2019-04-21T10:41:21.627Z,24.05
2019-04-21T10:42:21.539Z,24.01
2019-04-21T10:43:23.689Z,23.88
2019-04-21T10:44:21.458Z,23.76
2019-04-21T10:45:21.420Z,23.74
2019-04-21T10:46:22.472Z,23.61
2019-04-21T10:47:22.700Z,23.50
2019-04-21T10:48:21.389Z,23.40
2019-04-21T10:49:22.540Z,23.47
2019-04-21T10:50:22.493Z,23.66
2019-04-21T10:51:21.367Z,23.73
2019-04-21T10:52:22.739Z,23.62
2019-04-21T10:53:21.330Z,23.55
2019-04-21T10:54:21.895Z,23.56
2019-04-21T10:56:28.708Z,23.81
2019-04-21T10:57:22.384Z,23.73
2019-04-21T10:58:22.513Z,23.87
2019-04-21T10:59:22.564Z,24.02
2019-04-21T11:00:21.731Z,24.01
2019-04-21T11:01:21.243Z,24.16
2019-04-21T11:02:21.263Z,24.14
2019-04-21T11:03:22.642Z,24.24
2019-04-21T11:04:25.369Z,24.39
2019-04-21T11:05:22.737Z,24.26
2019-04-21T11:06:21.187Z,24.35
2019-04-21T11:07:25.518Z,24.28
2019-04-21T11:08:28.398Z,24.20
2019-04-21T11:09:22.151Z,24.18
2019-04-21T11:10:22.271Z,23.99
2019-04-21T11:11:21.760Z,23.87
2019-04-21T11:12:21.746Z,23.87
2019-04-21T11:13:21.146Z,24.03
2019-04-21T11:14:21.180Z,24.13
2019-04-21T11:15:21.244Z,23.84
2019-04-21T11:16:21.353Z,23.71
2019-04-21T11:17:21.843Z,23.95
2019-04-21T11:18:21.935Z,24.02
2019-04-21T11:19:22.131Z,24.14
2019-04-21T11:20:21.032Z,24.18
2019-04-21T11:21:21.022Z,24.21
2019-04-21T11:22:21.028Z,24.17
2019-04-21T11:23:22.394Z,24.01
2019-04-21T11:24:20.996Z,23.92
2019-04-21T11:25:22.040Z,23.91
2019-04-21T11:26:22.069Z,23.88
2019-04-21T11:27:20.967Z,23.80
2019-04-21T11:28:20.947Z,23.92
2019-04-21T11:29:21.290Z,23.92
2019-04-21T11:30:20.925Z,24.08
2019-04-21T11:31:21.003Z,24.17
2019-04-21T11:32:21.235Z,24.18
2019-04-21T11:33:21.322Z,24.26
2019-04-21T11:34:21.164Z,24.32
2019-04-21T11:35:21.249Z,24.08
2019-04-21T11:36:21.609Z,24.03
2019-04-21T11:37:21.971Z,23.92
2019-04-21T11:38:24.939Z,24.01
2019-04-21T11:39:31.614Z,24.14
2019-04-21T11:40:23.472Z,24.24
2019-04-21T11:41:21.623Z,24.33
2019-04-21T11:42:21.739Z,24.18
2019-04-21T11:43:22.023Z,24.16
2019-04-21T11:44:24.257Z,24.13
2019-04-21T11:45:22.102Z,24.08
2019-04-21T11:46:20.749Z,24.16
2019-04-21T11:47:20.734Z,24.18
2019-04-21T11:48:21.904Z,24.33
2019-04-21T11:49:22.247Z,24.17
2019-04-21T11:50:21.127Z,24.17
2019-04-21T11:51:20.704Z,24.17
2019-04-21T11:52:20.819Z,24.05
2019-04-21T11:53:21.054Z,24.23
2019-04-21T11:54:20.672Z,24.11
2019-04-21T11:55:20.698Z,24.16
2019-04-21T11:56:20.915Z,23.84
2019-04-21T11:57:26.400Z,24.01
2019-04-21T11:58:21.614Z,23.98
2019-04-21T11:59:21.772Z,24.05
2019-04-21T12:00:21.785Z,24.17
2019-04-21T12:01:21.337Z,24.21
2019-04-21T12:02:21.556Z,24.38
2019-04-21T12:03:22.044Z,24.38
2019-04-21T12:04:21.297Z,24.42
2019-04-21T12:05:21.405Z,24.42
2019-04-21T12:06:28.610Z,24.60
2019-04-21T12:07:22.859Z,24.69
2019-04-21T12:08:30.277Z,24.70
2019-04-21T12:09:21.513Z,24.50
2019-04-21T12:10:21.627Z,24.69
2019-04-21T12:11:21.041Z,24.51
2019-04-21T12:12:21.333Z,24.60
2019-04-21T12:13:20.538Z,24.60
2019-04-21T12:14:21.714Z,24.40
2019-04-21T12:15:20.840Z,24.39
2019-04-21T12:16:21.113Z,24.43
2019-04-21T12:17:20.433Z,24.54
2019-04-21T12:18:21.902Z,24.60
2019-04-21T12:19:20.785Z,24.81
2019-04-21T12:20:20.883Z,24.91
2019-04-21T12:21:21.203Z,25.03
2019-04-21T12:22:25.338Z,24.96
2019-04-21T12:23:22.532Z,24.98
2019-04-21T12:24:21.527Z,25.06
2019-04-21T12:25:20.953Z,24.86
2019-04-21T12:26:20.311Z,24.96
2019-04-21T12:27:20.433Z,24.73
2019-04-21T12:28:21.775Z,24.69
2019-04-21T12:29:20.826Z,24.61
2019-04-21T12:30:20.267Z,24.76
2019-04-21T12:31:21.211Z,24.80
2019-04-21T12:32:20.319Z,24.68
2019-04-21T12:33:20.265Z,24.36
2019-04-21T12:34:21.763Z,24.42
2019-04-21T12:35:20.217Z,24.57
2019-04-21T12:36:20.223Z,24.57
2019-04-21T12:37:20.211Z,24.70
2019-04-21T12:38:32.089Z,24.63
2019-04-21T12:39:21.170Z,24.57
2019-04-21T12:40:20.978Z,24.58
2019-04-21T12:41:20.438Z,24.50
2019-04-21T12:42:20.775Z,24.43
2019-04-21T12:43:21.003Z,24.38
2019-04-21T12:44:20.495Z,24.55
2019-04-21T12:45:20.125Z,24.74
2019-04-21T12:46:20.115Z,24.81
2019-04-21T12:47:20.106Z,24.85
2019-04-21T12:48:20.145Z,24.98
2019-04-21T12:49:20.252Z,24.73
2019-04-21T12:50:21.367Z,24.57
2019-04-21T12:51:20.059Z,24.51
2019-04-21T12:52:20.054Z,24.55
2019-04-21T12:53:21.367Z,24.51
2019-04-21T12:54:20.040Z,24.57
2019-04-21T12:55:26.160Z,24.60
2019-04-21T12:56:21.003Z,24.47
2019-04-21T12:57:21.327Z,24.57
2019-04-21T12:58:21.358Z,24.76
2019-04-21T12:59:21.115Z,24.98
2019-04-21T13:00:20.754Z,25.16
2019-04-21T13:01:20.964Z,25.25
2019-04-21T13:02:20.007Z,25.31
2019-04-21T13:03:21.733Z,25.28
2019-04-21T13:04:19.919Z,25.32
2019-04-21T13:06:55.710Z,25.36
2019-04-21T13:07:35.417Z,25.47
2019-04-21T13:08:49.070Z,25.36
2019-04-21T13:09:36.147Z,25.22
2019-04-21T13:10:35.935Z,25.06
2019-04-21T13:11:35.058Z,24.84
2019-04-21T13:12:35.254Z,24.95
2019-04-21T13:13:35.697Z,24.86
2019-04-21T13:14:35.862Z,24.70
2019-04-21T13:15:35.567Z,24.77
2019-04-21T13:16:34.605Z,24.81
2019-04-21T13:17:35.350Z,25.01
2019-04-21T13:18:35.331Z,25.14
2019-04-21T13:19:35.647Z,24.98
2019-04-21T13:21:56.072Z,24.50
2019-04-21T13:24:17.754Z,24.78
2019-04-21T13:25:02.376Z,24.85
2019-04-21T13:26:09.677Z,24.76
2019-04-21T13:27:03.630Z,24.54
2019-04-21T13:28:02.858Z,24.69
2019-04-21T13:29:10.144Z,24.68
2019-04-21T13:30:02.277Z,24.68
2019-04-21T13:31:02.329Z,24.57
2019-04-21T13:32:03.725Z,24.68
2019-04-21T13:33:03.028Z,24.61
2019-04-21T13:34:02.228Z,24.63
2019-04-21T13:35:03.199Z,24.61
2019-04-21T13:36:02.849Z,24.69
2019-04-21T13:37:11.930Z,24.78
2019-04-21T13:38:02.619Z,24.69
2019-04-21T13:39:33.168Z,24.74
2019-04-21T13:40:27.899Z,24.92
2019-04-21T13:41:17.840Z,25.01
2019-04-21T13:44:28.904Z,24.93
2019-04-21T13:45:37.330Z,24.73
2019-04-21T13:46:28.918Z,24.50
2019-04-21T13:47:28.406Z,24.39
2019-04-21T13:48:37.187Z,24.45
2019-04-21T13:49:37.183Z,24.55
2019-04-21T13:50:29.065Z,24.61
2019-04-21T13:51:29.235Z,24.81
2019-04-21T13:52:28.972Z,24.70
2019-04-21T13:53:28.562Z,24.80
2019-04-21T13:54:29.607Z,24.73
2019-04-21T13:55:29.622Z,24.84
2019-04-21T13:56:28.920Z,24.68
2019-04-21T13:57:28.589Z,24.63
2019-04-21T13:58:28.639Z,24.61
2019-04-21T13:59:28.631Z,24.80
2019-04-21T14:00:29.535Z,24.84
2019-04-21T14:01:29.676Z,24.80
2019-04-21T14:02:28.988Z,24.60
2019-04-21T14:03:29.225Z,24.55
2019-04-21T14:04:29.492Z,24.63
2019-04-21T14:05:28.676Z,24.50
2019-04-21T14:06:28.177Z,24.60
2019-04-21T14:07:28.176Z,24.80
2019-04-21T14:08:29.371Z,24.69
2019-04-21T14:09:37.791Z,24.65
2019-04-21T14:10:29.315Z,24.57
2019-04-21T14:11:29.266Z,24.53
2019-04-21T14:12:28.111Z,24.60
2019-04-21T14:13:28.100Z,24.74
2019-04-21T14:14:28.390Z,24.93
2019-04-21T14:15:28.459Z,24.91
2019-04-21T14:16:28.077Z,24.88